Rms Voerde — V2AD8 — position and weather

sailwx.info

Track history (hours):
 
Tides and Currents Weather Stations Pressure Air Temp Water Temp Dewpoint Dewpoint Depression Visibility Wind Speed Wind Dir Waves Ship Positions

Rms Voerde

Last reported at 2016-Jul-30 14:33 UTC. Time now 2016-Jul-30 15:00 UTC.
Position N 59°25' E 010°30'.

Length 90 m.

Type: Ship. MMSI: 304010905.

Date/timePositionNaut miles runAvg speedWind from/ knotsBaromVisibWave heightAir tempDewpointWater temp
2016-Jul-30 14:33N 59°25' E 010°30'0 0.0
2016-Jul-30 13:33N 59°25' E 010°30'0 0.0
2016-Jul-30 12:33N 59°25' E 010°30'0 0.0
2016-Jul-30 11:33N 59°25' E 010°30'0 0.0
2016-Jul-30 10:33N 59°25' E 010°30'0 0.0
2016-Jul-30 09:33N 59°25' E 010°30'0 0.0
2016-Jul-30 08:33N 59°25' E 010°30'0 0.0
2016-Jul-30 07:33N 59°25' E 010°30'0 0.0
2016-Jul-30 06:33N 59°25' E 010°30'0 0.0
2016-Jul-30 05:33N 59°25' E 010°30'0 0.0
2016-Jul-30 04:33N 59°25' E 010°30'0 0.0
2016-Jul-30 03:33N 59°25' E 010°30'0 0.0
2016-Jul-30 02:33N 59°25' E 010°30'0 0.0
2016-Jul-30 01:33N 59°25' E 010°30'0 0.0
2016-Jul-30 00:33N 59°25' E 010°30'0 0.0
2016-Jul-29 23:33N 59°25' E 010°30'7 7.2
2016-Jul-29 22:33N 59°18' E 010°33'1010.4
2016-Jul-29 21:33N 59°08' E 010°36'1010.5
2016-Jul-29 20:34N 58°58' E 010°29'1111.2
2016-Jul-29 19:33N 58°48' E 010°17'21510.7
2016-Jul-28 23:27N 55°46' E 006°48'1010.9
2016-Jul-28 22:33N 55°38' E 006°39'1210.9
2016-Jul-28 21:26N 55°27' E 006°28'6511.1
2016-Jul-28 15:33N 54°30' E 005°32'1111.3
2016-Jul-28 14:33N 54°21' E 005°22'1111.3
2016-Jul-28 13:33N 54°11' E 005°13'1111.2
2016-Jul-28 12:33N 54°00' E 005°05'6611.0
2016-Jul-28 06:32N 52°60' E 004°21'10 9.7
2016-Jul-28 05:33N 52°51' E 004°15'10 9.5
2016-Jul-28 04:33N 52°43' E 004°07'10 9.5
2016-Jul-28 03:33N 52°35' E 003°59'9 9.3
2016-Jul-28 02:32N 52°26' E 003°54'9 9.5
2016-Jul-28 01:33N 52°17' E 003°52'1010.1
2016-Jul-28 00:33N 52°07' E 003°55'1110.8
2016-Jul-27 23:33N 51°59' E 004°07'1211.7
2016-Jul-27 22:33N 51°54' E 004°25'2 2.0
2016-Jul-27 21:30N 51°54' E 004°28'0 0.0
2016-Jul-27 20:30N 51°54' E 004°28'0 0.3
2016-Jul-27 19:33N 51°54' E 004°28'7 7.4
2016-Jul-27 18:33N 51°51' E 004°39'9 9.0
2016-Jul-27 17:33N 51°49' E 004°54'1110.5
2016-Jul-27 16:31N 51°49' E 005°11'9 9.1
2016-Jul-27 15:30N 51°52' E 005°25'1010.6
2016-Jul-27 14:34N 51°54' E 005°41'32 9.6
2016-Jul-27 11:11N 51°40' E 006°29'5 8.1
2016-Jul-27 10:33N 51°37' E 006°35'9 0.3
2016-Jul-26 07:34N 51°30' E 006°43'5 5.2
2016-Jul-26 06:33N 51°35' E 006°40'4 4.1
2016-Jul-26 05:33N 51°38' E 006°36'13 5.4
2016-Jul-26 03:11N 51°46' E 006°20'13 6.7
2016-Jul-26 01:10N 51°53' E 006°01'6 5.6
2016-Jul-26 00:11N 51°51' E 005°53'4 6.9
2016-Jul-25 23:33N 51°53' E 005°46'9 7.2
2016-Jul-25 22:19N 51°54' E 005°32'7 6.8
2016-Jul-25 21:19N 51°49' E 005°23'5 5.9
2016-Jul-25 20:29N 51°49' E 005°15'8 7.3
2016-Jul-25 19:24N 51°49' E 005°02'8 9.2
2016-Jul-25 18:33N 51°49' E 004°49'8 8.5
2016-Jul-25 17:33N 51°53' E 004°37'7 6.5
2016-Jul-25 16:33N 51°54' E 004°27'0 0.4
2016-Jul-25 15:33N 51°53' E 004°27'0 0.0
2016-Jul-25 14:33N 51°53' E 004°27'0 0.0
2016-Jul-25 13:30N 51°53' E 004°27'0 0.0
2016-Jul-25 12:33N 51°53' E 004°27'0 0.0
2016-Jul-25 11:33N 51°53' E 004°27'0 0.0
2016-Jul-25 10:25N 51°53' E 004°27'0 0.0
2016-Jul-25 09:31N 51°53' E 004°27'0 0.0
2016-Jul-25 08:31N 51°53' E 004°27'0 0.0
2016-Jul-25 07:31N 51°53' E 004°27'0 0.0
2016-Jul-25 06:31N 51°53' E 004°27'0 0.0
2016-Jul-25 05:28N 51°53' E 004°27'0 0.0
2016-Jul-25 04:33N 51°53' E 004°27'3 3.2
2016-Jul-25 03:33N 51°54' E 004°22'8 8.5
2016-Jul-25 02:33N 51°57' E 004°10'8 8.1
2016-Jul-25 01:33N 51°59' E 003°57'19 6.1
2016-Jul-24 22:26N 51°55' E 003°27'11 5.3
2016-Jul-24 20:26N 51°52' E 003°11'5 5.7
2016-Jul-24 19:31N 51°50' E 003°02'6 6.0
2016-Jul-24 18:28N 51°49' E 002°53'6 6.5
2016-Jul-24 17:32N 51°47' E 002°43'8 7.9
2016-Jul-24 16:28N 51°41' E 002°33'9 9.8
2016-Jul-24 15:33N 51°35' E 002°23'1110.4
2016-Jul-24 14:32N 51°26' E 002°13'11 9.7
2016-Jul-24 13:22N 51°16' E 002°05'7 8.5
2016-Jul-24 12:29N 51°11' E 001°57'7 7.2
2016-Jul-24 11:33N 51°07' E 001°48'6 6.2
2016-Jul-24 10:33N 51°02' E 001°41'6 5.7
2016-Jul-24 09:31N 50°58' E 001°35'6 6.1
2016-Jul-24 08:33N 50°53' E 001°29'58 8.3
2016-Jul-24 01:33N 50°21' E 000°13'1111.2
2016-Jul-24 00:33N 50°18' W 000°04'2912.6
2016-Jul-23 22:13N 50°09' W 000°48'103 9.5
2016-Jul-23 11:18N 49°37' W 003°20'3411.4
2016-Jul-23 08:16N 49°19' W 004°06'1312.1
2016-Jul-23 07:11N 49°12' W 004°23'912.3
2016-Jul-23 06:26N 49°08' W 004°35'2511.9
2016-Jul-23 04:18N 48°56' W 005°09'810.9
2016-Jul-23 03:33N 48°52' W 005°20'  
Track history (hours):
 
Tides and Currents Weather Stations Pressure Air Temp Water Temp Dewpoint Dewpoint Depression Visibility Wind Speed Wind Dir Waves Ship Positions

Rms Voerde

Last reported at 2016-Jul-30 14:33 UTC. Time now 2016-Jul-30 15:00 UTC.
Position N 59°25' E 010°30'.

Length 90 m.

Type: Ship. MMSI: 304010905.

Date/timePositionNaut miles runAvg speedWind from/ knotsBaromVisibWave heightAir tempDewpointWater temp
2016-Jul-30 14:33N 59°25' E 010°30'0 0.0
2016-Jul-30 13:33N 59°25' E 010°30'0 0.0
2016-Jul-30 12:33N 59°25' E 010°30'0 0.0
2016-Jul-30 11:33N 59°25' E 010°30'0 0.0
2016-Jul-30 10:33N 59°25' E 010°30'0 0.0
2016-Jul-30 09:33N 59°25' E 010°30'0 0.0
2016-Jul-30 08:33N 59°25' E 010°30'0 0.0
2016-Jul-30 07:33N 59°25' E 010°30'0 0.0
2016-Jul-30 06:33N 59°25' E 010°30'0 0.0
2016-Jul-30 05:33N 59°25' E 010°30'0 0.0
2016-Jul-30 04:33N 59°25' E 010°30'0 0.0
2016-Jul-30 03:33N 59°25' E 010°30'0 0.0
2016-Jul-30 02:33N 59°25' E 010°30'0 0.0
2016-Jul-30 01:33N 59°25' E 010°30'0 0.0
2016-Jul-30 00:33N 59°25' E 010°30'0 0.0
2016-Jul-29 23:33N 59°25' E 010°30'7 7.2
2016-Jul-29 22:33N 59°18' E 010°33'1010.4
2016-Jul-29 21:33N 59°08' E 010°36'1010.5
2016-Jul-29 20:34N 58°58' E 010°29'1111.2
2016-Jul-29 19:33N 58°48' E 010°17'21510.7
2016-Jul-28 23:27N 55°46' E 006°48'1010.9
2016-Jul-28 22:33N 55°38' E 006°39'1210.9
2016-Jul-28 21:26N 55°27' E 006°28'6511.1
2016-Jul-28 15:33N 54°30' E 005°32'1111.3
2016-Jul-28 14:33N 54°21' E 005°22'1111.3
2016-Jul-28 13:33N 54°11' E 005°13'1111.2
2016-Jul-28 12:33N 54°00' E 005°05'6611.0
2016-Jul-28 06:32N 52°60' E 004°21'10 9.7
2016-Jul-28 05:33N 52°51' E 004°15'10 9.5
2016-Jul-28 04:33N 52°43' E 004°07'10 9.5
2016-Jul-28 03:33N 52°35' E 003°59'9 9.3
2016-Jul-28 02:32N 52°26' E 003°54'9 9.5
2016-Jul-28 01:33N 52°17' E 003°52'1010.1
2016-Jul-28 00:33N 52°07' E 003°55'1110.8
2016-Jul-27 23:33N 51°59' E 004°07'1211.7
2016-Jul-27 22:33N 51°54' E 004°25'2 2.0
2016-Jul-27 21:30N 51°54' E 004°28'0 0.0
2016-Jul-27 20:30N 51°54' E 004°28'0 0.3
2016-Jul-27 19:33N 51°54' E 004°28'7 7.4
2016-Jul-27 18:33N 51°51' E 004°39'9 9.0
2016-Jul-27 17:33N 51°49' E 004°54'1110.5
2016-Jul-27 16:31N 51°49' E 005°11'9 9.1
2016-Jul-27 15:30N 51°52' E 005°25'1010.6
2016-Jul-27 14:34N 51°54' E 005°41'32 9.6
2016-Jul-27 11:11N 51°40' E 006°29'5 8.1
2016-Jul-27 10:33N 51°37' E 006°35'9 0.3
2016-Jul-26 07:34N 51°30' E 006°43'5 5.2
2016-Jul-26 06:33N 51°35' E 006°40'4 4.1
2016-Jul-26 05:33N 51°38' E 006°36'13 5.4
2016-Jul-26 03:11N 51°46' E 006°20'13 6.7
2016-Jul-26 01:10N 51°53' E 006°01'6 5.6
2016-Jul-26 00:11N 51°51' E 005°53'4 6.9
2016-Jul-25 23:33N 51°53' E 005°46'9 7.2
2016-Jul-25 22:19N 51°54' E 005°32'7 6.8
2016-Jul-25 21:19N 51°49' E 005°23'5 5.9
2016-Jul-25 20:29N 51°49' E 005°15'8 7.3
2016-Jul-25 19:24N 51°49' E 005°02'8 9.2
2016-Jul-25 18:33N 51°49' E 004°49'8 8.5
2016-Jul-25 17:33N 51°53' E 004°37'7 6.5
2016-Jul-25 16:33N 51°54' E 004°27'0 0.4
2016-Jul-25 15:33N 51°53' E 004°27'0 0.0
2016-Jul-25 14:33N 51°53' E 004°27'0 0.0
2016-Jul-25 13:30N 51°53' E 004°27'0 0.0
2016-Jul-25 12:33N 51°53' E 004°27'0 0.0
2016-Jul-25 11:33N 51°53' E 004°27'0 0.0
2016-Jul-25 10:25N 51°53' E 004°27'0 0.0
2016-Jul-25 09:31N 51°53' E 004°27'0 0.0
2016-Jul-25 08:31N 51°53' E 004°27'0 0.0
2016-Jul-25 07:31N 51°53' E 004°27'0 0.0
2016-Jul-25 06:31N 51°53' E 004°27'0 0.0
2016-Jul-25 05:28N 51°53' E 004°27'0 0.0
2016-Jul-25 04:33N 51°53' E 004°27'3 3.2
2016-Jul-25 03:33N 51°54' E 004°22'8 8.5
2016-Jul-25 02:33N 51°57' E 004°10'8 8.1
2016-Jul-25 01:33N 51°59' E 003°57'19 6.1
2016-Jul-24 22:26N 51°55' E 003°27'11 5.3
2016-Jul-24 20:26N 51°52' E 003°11'5 5.7
2016-Jul-24 19:31N 51°50' E 003°02'6 6.0
2016-Jul-24 18:28N 51°49' E 002°53'6 6.5
2016-Jul-24 17:32N 51°47' E 002°43'8 7.9
2016-Jul-24 16:28N 51°41' E 002°33'9 9.8
2016-Jul-24 15:33N 51°35' E 002°23'1110.4
2016-Jul-24 14:32N 51°26' E 002°13'11 9.7
2016-Jul-24 13:22N 51°16' E 002°05'7 8.5
2016-Jul-24 12:29N 51°11' E 001°57'7 7.2
2016-Jul-24 11:33N 51°07' E 001°48'6 6.2
2016-Jul-24 10:33N 51°02' E 001°41'6 5.7
2016-Jul-24 09:31N 50°58' E 001°35'6 6.1
2016-Jul-24 08:33N 50°53' E 001°29'58 8.3
2016-Jul-24 01:33N 50°21' E 000°13'1111.2
2016-Jul-24 00:33N 50°18' W 000°04'2912.6
2016-Jul-23 22:13N 50°09' W 000°48'103 9.5
2016-Jul-23 11:18N 49°37' W 003°20'3411.4
2016-Jul-23 08:16N 49°19' W 004°06'1312.1
2016-Jul-23 07:11N 49°12' W 004°23'912.3
2016-Jul-23 06:26N 49°08' W 004°35'2511.9
2016-Jul-23 04:18N 48°56' W 005°09'810.9
2016-Jul-23 03:33N 48°52' W 005°20'  

Dump ship's entire track history